sensor_id;sensor_type;location;lat;lon;timestamp;P1;durP1;ratioP1;P2;durP2;ratioP2
10458;SDS011;5277;48.722;8.736;2023-05-07T00:01:14;5.35;;;2.95;;
10458;SDS011;5277;48.722;8.736;2023-05-07T00:03:39;8.10;;;3.10;;
10458;SDS011;5277;48.722;8.736;2023-05-07T00:06:05;4.22;;;2.85;;
10458;SDS011;5277;48.722;8.736;2023-05-07T00:08:31;3.05;;;2.60;;
10458;SDS011;5277;48.722;8.736;2023-05-07T00:10:56;5.80;;;2.60;;
10458;SDS011;5277;48.722;8.736;2023-05-07T00:13:22;5.25;;;2.97;;
10458;SDS011;5277;48.722;8.736;2023-05-07T00:15:47;5.22;;;2.55;;
10458;SDS011;5277;48.722;8.736;2023-05-07T00:18:13;4.95;;;2.80;;
10458;SDS011;5277;48.722;8.736;2023-05-07T00:20:38;4.85;;;2.83;;
10458;SDS011;5277;48.722;8.736;2023-05-07T00:23:04;5.32;;;2.95;;
10458;SDS011;5277;48.722;8.736;2023-05-07T00:25:30;5.55;;;2.95;;
10458;SDS011;5277;48.722;8.736;2023-05-07T00:27:55;6.25;;;3.22;;
10458;SDS011;5277;48.722;8.736;2023-05-07T00:30:22;4.22;;;2.72;;
10458;SDS011;5277;48.722;8.736;2023-05-07T00:32:48;9.38;;;2.60;;
10458;SDS011;5277;48.722;8.736;2023-05-07T00:35:14;4.50;;;3.00;;
10458;SDS011;5277;48.722;8.736;2023-05-07T00:37:39;6.65;;;3.13;;
10458;SDS011;5277;48.722;8.736;2023-05-07T00:40:05;7.97;;;3.00;;
10458;SDS011;5277;48.722;8.736;2023-05-07T00:42:32;3.40;;;2.70;;
10458;SDS011;5277;48.722;8.736;2023-05-07T00:44:58;8.63;;;3.25;;
10458;SDS011;5277;48.722;8.736;2023-05-07T00:47:24;6.70;;;2.95;;
10458;SDS011;5277;48.722;8.736;2023-05-07T00:49:50;6.97;;;3.17;;
10458;SDS011;5277;48.722;8.736;2023-05-07T00:52:16;4.53;;;2.97;;
10458;SDS011;5277;48.722;8.736;2023-05-07T00:54:43;5.15;;;2.50;;
10458;SDS011;5277;48.722;8.736;2023-05-07T00:57:10;6.07;;;3.05;;
10458;SDS011;5277;48.722;8.736;2023-05-07T00:59:38;6.18;;;2.72;;
10458;SDS011;5277;48.722;8.736;2023-05-07T01:02:05;4.40;;;3.00;;
10458;SDS011;5277;48.722;8.736;2023-05-07T01:04:31;5.90;;;2.80;;
10458;SDS011;5277;48.722;8.736;2023-05-07T01:06:57;3.42;;;2.45;;
10458;SDS011;5277;48.722;8.736;2023-05-07T01:09:24;4.72;;;2.92;;
10458;SDS011;5277;48.722;8.736;2023-05-07T01:11:50;4.53;;;2.72;;
10458;SDS011;5277;48.722;8.736;2023-05-07T01:14:17;7.00;;;3.05;;
10458;SDS011;5277;48.722;8.736;2023-05-07T01:16:43;7.85;;;2.80;;
10458;SDS011;5277;48.722;8.736;2023-05-07T01:19:09;6.78;;;3.00;;
10458;SDS011;5277;48.722;8.736;2023-05-07T01:21:38;5.70;;;2.60;;
10458;SDS011;5277;48.722;8.736;2023-05-07T01:24:11;4.90;;;2.60;;
10458;SDS011;5277;48.722;8.736;2023-05-07T01:26:37;4.18;;;2.97;;
10458;SDS011;5277;48.722;8.736;2023-05-07T01:29:03;4.68;;;2.53;;
10458;SDS011;5277;48.722;8.736;2023-05-07T01:31:29;5.25;;;2.83;;
10458;SDS011;5277;48.722;8.736;2023-05-07T01:33:55;4.40;;;2.70;;
10458;SDS011;5277;48.722;8.736;2023-05-07T01:36:23;6.00;;;2.85;;
10458;SDS011;5277;48.722;8.736;2023-05-07T01:38:52;5.03;;;2.83;;
10458;SDS011;5277;48.722;8.736;2023-05-07T01:41:18;6.93;;;2.85;;
10458;SDS011;5277;48.722;8.736;2023-05-07T01:43:44;5.88;;;2.55;;
10458;SDS011;5277;48.722;8.736;2023-05-07T01:46:12;3.70;;;2.45;;
10458;SDS011;5277;48.722;8.736;2023-05-07T01:48:38;6.18;;;2.78;;
10458;SDS011;5277;48.722;8.736;2023-05-07T01:51:05;4.63;;;2.83;;
10458;SDS011;5277;48.722;8.736;2023-05-07T01:53:37;5.40;;;2.70;;
10458;SDS011;5277;48.722;8.736;2023-05-07T01:56:05;3.75;;;2.38;;
10458;SDS011;5277;48.722;8.736;2023-05-07T01:58:31;8.00;;;2.95;;
10458;SDS011;5277;48.722;8.736;2023-05-07T02:00:57;4.55;;;2.40;;
10458;SDS011;5277;48.722;8.736;2023-05-07T02:03:22;4.72;;;2.38;;
10458;SDS011;5277;48.722;8.736;2023-05-07T02:05:48;5.35;;;2.80;;
10458;SDS011;5277;48.722;8.736;2023-05-07T02:08:13;4.25;;;2.65;;
10458;SDS011;5277;48.722;8.736;2023-05-07T02:10:39;5.15;;;2.83;;
10458;SDS011;5277;48.722;8.736;2023-05-07T02:13:05;4.22;;;3.00;;
10458;SDS011;5277;48.722;8.736;2023-05-07T02:15:30;3.72;;;3.10;;
10458;SDS011;5277;48.722;8.736;2023-05-07T02:20:26;2.78;;;2.25;;
10458;SDS011;5277;48.722;8.736;2023-05-07T02:22:52;3.13;;;2.50;;
10458;SDS011;5277;48.722;8.736;2023-05-07T02:25:17;4.38;;;2.78;;
10458;SDS011;5277;48.722;8.736;2023-05-07T02:27:43;3.63;;;2.17;;
10458;SDS011;5277;48.722;8.736;2023-05-07T02:30:09;5.05;;;2.70;;
10458;SDS011;5277;48.722;8.736;2023-05-07T02:32:35;7.07;;;2.90;;
10458;SDS011;5277;48.722;8.736;2023-05-07T02:35:00;3.17;;;2.30;;
10458;SDS011;5277;48.722;8.736;2023-05-07T02:37:26;3.20;;;2.40;;
10458;SDS011;5277;48.722;8.736;2023-05-07T02:39:51;4.95;;;2.58;;
10458;SDS011;5277;48.722;8.736;2023-05-07T02:42:17;4.55;;;2.90;;
10458;SDS011;5277;48.722;8.736;2023-05-07T02:44:43;4.47;;;2.40;;
10458;SDS011;5277;48.722;8.736;2023-05-07T02:47:08;4.00;;;2.63;;
10458;SDS011;5277;48.722;8.736;2023-05-07T02:49:34;7.25;;;2.58;;
10458;SDS011;5277;48.722;8.736;2023-05-07T02:52:00;3.42;;;2.33;;
10458;SDS011;5277;48.722;8.736;2023-05-07T02:54:25;5.28;;;2.35;;
10458;SDS011;5277;48.722;8.736;2023-05-07T02:56:51;3.53;;;2.30;;
10458;SDS011;5277;48.722;8.736;2023-05-07T02:59:16;6.30;;;2.78;;
10458;SDS011;5277;48.722;8.736;2023-05-07T03:01:42;3.58;;;2.55;;
10458;SDS011;5277;48.722;8.736;2023-05-07T03:04:10;3.30;;;2.33;;
10458;SDS011;5277;48.722;8.736;2023-05-07T03:06:36;3.45;;;2.70;;
10458;SDS011;5277;48.722;8.736;2023-05-07T03:09:01;5.10;;;2.65;;
10458;SDS011;5277;48.722;8.736;2023-05-07T03:11:27;7.00;;;2.65;;
10458;SDS011;5277;48.722;8.736;2023-05-07T03:13:53;9.93;;;2.70;;
10458;SDS011;5277;48.722;8.736;2023-05-07T03:16:18;9.80;;;2.80;;
10458;SDS011;5277;48.722;8.736;2023-05-07T03:18:44;4.70;;;2.30;;
10458;SDS011;5277;48.722;8.736;2023-05-07T03:21:09;4.88;;;2.60;;
10458;SDS011;5277;48.722;8.736;2023-05-07T03:23:35;3.38;;;2.58;;
10458;SDS011;5277;48.722;8.736;2023-05-07T03:26:01;2.92;;;2.40;;
10458;SDS011;5277;48.722;8.736;2023-05-07T03:28:26;3.33;;;2.70;;
10458;SDS011;5277;48.722;8.736;2023-05-07T03:30:52;5.50;;;2.70;;
10458;SDS011;5277;48.722;8.736;2023-05-07T03:33:17;3.30;;;2.42;;
10458;SDS011;5277;48.722;8.736;2023-05-07T03:35:43;7.53;;;2.63;;
10458;SDS011;5277;48.722;8.736;2023-05-07T03:38:08;4.50;;;2.55;;
10458;SDS011;5277;48.722;8.736;2023-05-07T03:40:34;5.43;;;2.75;;
10458;SDS011;5277;48.722;8.736;2023-05-07T03:43:00;4.22;;;2.40;;
10458;SDS011;5277;48.722;8.736;2023-05-07T03:45:26;3.20;;;2.42;;
10458;SDS011;5277;48.722;8.736;2023-05-07T03:47:52;4.05;;;2.38;;
10458;SDS011;5277;48.722;8.736;2023-05-07T03:50:18;7.13;;;2.50;;
10458;SDS011;5277;48.722;8.736;2023-05-07T03:52:43;3.38;;;2.55;;
10458;SDS011;5277;48.722;8.736;2023-05-07T03:55:09;6.68;;;2.80;;
10458;SDS011;5277;48.722;8.736;2023-05-07T03:57:35;4.55;;;2.60;;
10458;SDS011;5277;48.722;8.736;2023-05-07T04:00:00;4.85;;;2.60;;
10458;SDS011;5277;48.722;8.736;2023-05-07T04:02:27;4.50;;;2.70;;
10458;SDS011;5277;48.722;8.736;2023-05-07T04:04:52;5.03;;;2.60;;
10458;SDS011;5277;48.722;8.736;2023-05-07T04:07:18;3.05;;;2.38;;
10458;SDS011;5277;48.722;8.736;2023-05-07T04:09:44;4.18;;;2.50;;
10458;SDS011;5277;48.722;8.736;2023-05-07T04:12:09;2.72;;;2.33;;
10458;SDS011;5277;48.722;8.736;2023-05-07T04:14:35;3.95;;;2.80;;
10458;SDS011;5277;48.722;8.736;2023-05-07T04:17:00;9.13;;;2.80;;
10458;SDS011;5277;48.722;8.736;2023-05-07T04:19:27;3.00;;;2.60;;
10458;SDS011;5277;48.722;8.736;2023-05-07T04:21:53;4.70;;;2.40;;
10458;SDS011;5277;48.722;8.736;2023-05-07T04:24:18;6.50;;;2.75;;
10458;SDS011;5277;48.722;8.736;2023-05-07T04:26:44;4.57;;;2.72;;
10458;SDS011;5277;48.722;8.736;2023-05-07T04:29:09;3.13;;;2.33;;
10458;SDS011;5277;48.722;8.736;2023-05-07T04:31:36;5.93;;;2.38;;
10458;SDS011;5277;48.722;8.736;2023-05-07T04:34:01;3.42;;;2.63;;
10458;SDS011;5277;48.722;8.736;2023-05-07T04:36:27;3.53;;;2.60;;
10458;SDS011;5277;48.722;8.736;2023-05-07T04:38:54;11.70;;;2.78;;
10458;SDS011;5277;48.722;8.736;2023-05-07T04:41:19;7.80;;;2.60;;
10458;SDS011;5277;48.722;8.736;2023-05-07T04:43:45;3.20;;;2.55;;
10458;SDS011;5277;48.722;8.736;2023-05-07T04:46:11;6.78;;;2.55;;
10458;SDS011;5277;48.722;8.736;2023-05-07T04:48:36;4.07;;;2.50;;
10458;SDS011;5277;48.722;8.736;2023-05-07T04:51:02;3.42;;;2.58;;
10458;SDS011;5277;48.722;8.736;2023-05-07T04:53:28;5.68;;;2.40;;
10458;SDS011;5277;48.722;8.736;2023-05-07T04:55:57;5.15;;;2.70;;
10458;SDS011;5277;48.722;8.736;2023-05-07T04:58:23;5.63;;;2.60;;
10458;SDS011;5277;48.722;8.736;2023-05-07T05:00:49;3.10;;;2.30;;
10458;SDS011;5277;48.722;8.736;2023-05-07T05:03:14;2.90;;;2.40;;
10458;SDS011;5277;48.722;8.736;2023-05-07T05:05:40;5.05;;;2.63;;
10458;SDS011;5277;48.722;8.736;2023-05-07T05:08:05;4.03;;;2.50;;
10458;SDS011;5277;48.722;8.736;2023-05-07T05:10:31;2.58;;;2.25;;
10458;SDS011;5277;48.722;8.736;2023-05-07T05:12:57;3.65;;;2.25;;
10458;SDS011;5277;48.722;8.736;2023-05-07T05:15:22;4.30;;;1.92;;
10458;SDS011;5277;48.722;8.736;2023-05-07T05:17:48;3.33;;;2.67;;
10458;SDS011;5277;48.722;8.736;2023-05-07T05:20:13;4.10;;;2.72;;
10458;SDS011;5277;48.722;8.736;2023-05-07T05:22:39;4.20;;;2.10;;
10458;SDS011;5277;48.722;8.736;2023-05-07T05:25:06;2.42;;;2.10;;
10458;SDS011;5277;48.722;8.736;2023-05-07T05:27:32;2.58;;;2.00;;
10458;SDS011;5277;48.722;8.736;2023-05-07T05:29:59;4.35;;;2.15;;
10458;SDS011;5277;48.722;8.736;2023-05-07T05:32:24;4.95;;;2.72;;
10458;SDS011;5277;48.722;8.736;2023-05-07T05:34:50;2.70;;;2.13;;
10458;SDS011;5277;48.722;8.736;2023-05-07T05:37:16;6.13;;;2.30;;
10458;SDS011;5277;48.722;8.736;2023-05-07T05:39:41;4.05;;;2.28;;
10458;SDS011;5277;48.722;8.736;2023-05-07T05:42:07;4.03;;;2.15;;
10458;SDS011;5277;48.722;8.736;2023-05-07T05:44:33;3.33;;;2.05;;
10458;SDS011;5277;48.722;8.736;2023-05-07T05:46:58;4.68;;;2.05;;
10458;SDS011;5277;48.722;8.736;2023-05-07T05:49:24;3.63;;;2.15;;
10458;SDS011;5277;48.722;8.736;2023-05-07T05:51:50;5.22;;;2.15;;
10458;SDS011;5277;48.722;8.736;2023-05-07T05:54:16;4.53;;;1.95;;
10458;SDS011;5277;48.722;8.736;2023-05-07T05:56:42;5.80;;;2.53;;
10458;SDS011;5277;48.722;8.736;2023-05-07T05:59:07;3.63;;;2.10;;
10458;SDS011;5277;48.722;8.736;2023-05-07T06:01:33;2.90;;;2.22;;
10458;SDS011;5277;48.722;8.736;2023-05-07T06:03:59;2.40;;;2.03;;
10458;SDS011;5277;48.722;8.736;2023-05-07T06:06:24;4.22;;;2.10;;
10458;SDS011;5277;48.722;8.736;2023-05-07T06:08:50;4.68;;;2.30;;
10458;SDS011;5277;48.722;8.736;2023-05-07T06:11:16;4.70;;;2.30;;
10458;SDS011;5277;48.722;8.736;2023-05-07T06:13:42;2.47;;;1.90;;
10458;SDS011;5277;48.722;8.736;2023-05-07T06:16:07;4.25;;;2.05;;
10458;SDS011;5277;48.722;8.736;2023-05-07T06:18:33;4.30;;;2.10;;
10458;SDS011;5277;48.722;8.736;2023-05-07T06:21:01;3.28;;;2.25;;
10458;SDS011;5277;48.722;8.736;2023-05-07T06:23:26;2.58;;;1.73;;
10458;SDS011;5277;48.722;8.736;2023-05-07T06:25:52;4.50;;;2.20;;
10458;SDS011;5277;48.722;8.736;2023-05-07T06:28:17;2.42;;;1.90;;
10458;SDS011;5277;48.722;8.736;2023-05-07T06:30:43;2.97;;;2.20;;
10458;SDS011;5277;48.722;8.736;2023-05-07T06:33:09;2.90;;;2.08;;
10458;SDS011;5277;48.722;8.736;2023-05-07T06:35:34;4.45;;;2.20;;
10458;SDS011;5277;48.722;8.736;2023-05-07T06:38:00;2.25;;;2.05;;
10458;SDS011;5277;48.722;8.736;2023-05-07T06:40:26;4.82;;;2.10;;
10458;SDS011;5277;48.722;8.736;2023-05-07T06:42:52;3.03;;;2.10;;
10458;SDS011;5277;48.722;8.736;2023-05-07T06:45:19;3.88;;;2.03;;
10458;SDS011;5277;48.722;8.736;2023-05-07T06:47:44;2.63;;;2.00;;
10458;SDS011;5277;48.722;8.736;2023-05-07T06:50:10;4.53;;;1.95;;
10458;SDS011;5277;48.722;8.736;2023-05-07T06:52:36;5.00;;;2.30;;
10458;SDS011;5277;48.722;8.736;2023-05-07T06:55:01;2.65;;;2.00;;
10458;SDS011;5277;48.722;8.736;2023-05-07T06:57:27;3.47;;;2.00;;
10458;SDS011;5277;48.722;8.736;2023-05-07T06:59:52;7.03;;;1.92;;
10458;SDS011;5277;48.722;8.736;2023-05-07T07:02:18;3.65;;;1.75;;
10458;SDS011;5277;48.722;8.736;2023-05-07T07:04:44;2.88;;;2.00;;
10458;SDS011;5277;48.722;8.736;2023-05-07T07:07:10;2.63;;;2.00;;
10458;SDS011;5277;48.722;8.736;2023-05-07T07:09:36;2.67;;;1.95;;
10458;SDS011;5277;48.722;8.736;2023-05-07T07:12:01;2.50;;;1.98;;
10458;SDS011;5277;48.722;8.736;2023-05-07T07:14:27;3.47;;;2.13;;
10458;SDS011;5277;48.722;8.736;2023-05-07T07:16:52;2.47;;;2.25;;
10458;SDS011;5277;48.722;8.736;2023-05-07T07:19:18;3.85;;;1.75;;
10458;SDS011;5277;48.722;8.736;2023-05-07T07:21:45;3.22;;;2.30;;
10458;SDS011;5277;48.722;8.736;2023-05-07T07:24:10;2.97;;;1.92;;
10458;SDS011;5277;48.722;8.736;2023-05-07T07:26:36;6.53;;;2.42;;
10458;SDS011;5277;48.722;8.736;2023-05-07T07:29:02;2.63;;;2.05;;
10458;SDS011;5277;48.722;8.736;2023-05-07T07:31:27;3.72;;;2.60;;
10458;SDS011;5277;48.722;8.736;2023-05-07T07:33:53;3.67;;;2.50;;
10458;SDS011;5277;48.722;8.736;2023-05-07T07:36:18;4.28;;;2.22;;
10458;SDS011;5277;48.722;8.736;2023-05-07T07:38:44;4.03;;;2.05;;
10458;SDS011;5277;48.722;8.736;2023-05-07T07:41:09;5.75;;;2.53;;
10458;SDS011;5277;48.722;8.736;2023-05-07T07:43:35;2.72;;;2.17;;
10458;SDS011;5277;48.722;8.736;2023-05-07T07:46:02;4.63;;;2.50;;
10458;SDS011;5277;48.722;8.736;2023-05-07T07:48:27;4.57;;;2.00;;
10458;SDS011;5277;48.722;8.736;2023-05-07T07:50:53;4.05;;;2.25;;
10458;SDS011;5277;48.722;8.736;2023-05-07T07:53:18;3.15;;;2.13;;
10458;SDS011;5277;48.722;8.736;2023-05-07T07:55:44;4.13;;;2.05;;
10458;SDS011;5277;48.722;8.736;2023-05-07T07:58:10;4.20;;;2.30;;
10458;SDS011;5277;48.722;8.736;2023-05-07T08:00:36;3.97;;;1.88;;
10458;SDS011;5277;48.722;8.736;2023-05-07T08:03:01;2.30;;;1.83;;
10458;SDS011;5277;48.722;8.736;2023-05-07T08:05:28;3.40;;;2.20;;
10458;SDS011;5277;48.722;8.736;2023-05-07T08:07:53;2.60;;;2.10;;
10458;SDS011;5277;48.722;8.736;2023-05-07T08:10:19;2.95;;;2.10;;
10458;SDS011;5277;48.722;8.736;2023-05-07T08:12:48;2.72;;;2.50;;
10458;SDS011;5277;48.722;8.736;2023-05-07T08:15:14;2.20;;;1.88;;
10458;SDS011;5277;48.722;8.736;2023-05-07T08:17:40;3.63;;;2.40;;
10458;SDS011;5277;48.722;8.736;2023-05-07T08:20:06;2.10;;;1.90;;
10458;SDS011;5277;48.722;8.736;2023-05-07T08:22:32;2.10;;;1.90;;
10458;SDS011;5277;48.722;8.736;2023-05-07T08:24:59;3.70;;;2.10;;
10458;SDS011;5277;48.722;8.736;2023-05-07T08:27:25;2.10;;;1.90;;
10458;SDS011;5277;48.722;8.736;2023-05-07T08:29:50;2.92;;;2.13;;
10458;SDS011;5277;48.722;8.736;2023-05-07T08:32:16;3.20;;;2.00;;
10458;SDS011;5277;48.722;8.736;2023-05-07T08:34:42;3.35;;;2.10;;
10458;SDS011;5277;48.722;8.736;2023-05-07T08:37:07;2.55;;;1.98;;
10458;SDS011;5277;48.722;8.736;2023-05-07T08:39:33;4.75;;;2.08;;
10458;SDS011;5277;48.722;8.736;2023-05-07T08:42:00;4.72;;;1.77;;
10458;SDS011;5277;48.722;8.736;2023-05-07T08:44:31;3.65;;;1.90;;
10458;SDS011;5277;48.722;8.736;2023-05-07T08:47:00;3.85;;;2.05;;
10458;SDS011;5277;48.722;8.736;2023-05-07T08:49:29;2.90;;;2.03;;
10458;SDS011;5277;48.722;8.736;2023-05-07T08:51:55;2.38;;;1.80;;
10458;SDS011;5277;48.722;8.736;2023-05-07T08:54:21;5.00;;;2.03;;
10458;SDS011;5277;48.722;8.736;2023-05-07T08:56:47;2.78;;;2.03;;
10458;SDS011;5277;48.722;8.736;2023-05-07T08:59:13;3.28;;;2.50;;
10458;SDS011;5277;48.722;8.736;2023-05-07T09:01:38;3.75;;;2.08;;
10458;SDS011;5277;48.722;8.736;2023-05-07T09:04:04;2.60;;;2.20;;
10458;SDS011;5277;48.722;8.736;2023-05-07T09:06:31;2.28;;;2.00;;
10458;SDS011;5277;48.722;8.736;2023-05-07T09:08:57;3.22;;;2.25;;
10458;SDS011;5277;48.722;8.736;2023-05-07T09:11:26;2.65;;;1.83;;
10458;SDS011;5277;48.722;8.736;2023-05-07T09:13:55;2.05;;;1.85;;
10458;SDS011;5277;48.722;8.736;2023-05-07T09:16:23;3.80;;;2.08;;
10458;SDS011;5277;48.722;8.736;2023-05-07T09:18:52;4.53;;;2.10;;
10458;SDS011;5277;48.722;8.736;2023-05-07T09:21:19;3.20;;;2.20;;
10458;SDS011;5277;48.722;8.736;2023-05-07T09:23:47;2.33;;;1.90;;
10458;SDS011;5277;48.722;8.736;2023-05-07T09:26:14;2.70;;;1.88;;
10458;SDS011;5277;48.722;8.736;2023-05-07T09:28:40;3.63;;;1.90;;
10458;SDS011;5277;48.722;8.736;2023-05-07T09:31:07;3.72;;;2.20;;
10458;SDS011;5277;48.722;8.736;2023-05-07T09:33:36;6.38;;;2.40;;
10458;SDS011;5277;48.722;8.736;2023-05-07T09:36:05;2.22;;;2.03;;
10458;SDS011;5277;48.722;8.736;2023-05-07T09:38:32;3.50;;;1.85;;
10458;SDS011;5277;48.722;8.736;2023-05-07T09:41:06;3.70;;;2.20;;
10458;SDS011;5277;48.722;8.736;2023-05-07T09:43:33;2.72;;;2.00;;
10458;SDS011;5277;48.722;8.736;2023-05-07T09:46:06;3.83;;;1.92;;
10458;SDS011;5277;48.722;8.736;2023-05-07T09:48:40;5.10;;;2.15;;
10458;SDS011;5277;48.722;8.736;2023-05-07T09:53:56;5.65;;;2.25;;
10458;SDS011;5277;48.722;8.736;2023-05-07T09:56:22;3.95;;;1.98;;
10458;SDS011;5277;48.722;8.736;2023-05-07T09:58:49;2.72;;;2.05;;
10458;SDS011;5277;48.722;8.736;2023-05-07T10:01:17;2.72;;;1.80;;
10458;SDS011;5277;48.722;8.736;2023-05-07T10:03:46;3.38;;;2.10;;
10458;SDS011;5277;48.722;8.736;2023-05-07T10:06:13;4.20;;;1.90;;
10458;SDS011;5277;48.722;8.736;2023-05-07T10:08:40;3.35;;;2.00;;
10458;SDS011;5277;48.722;8.736;2023-05-07T10:11:07;3.75;;;1.80;;
10458;SDS011;5277;48.722;8.736;2023-05-07T10:13:34;2.63;;;1.73;;
10458;SDS011;5277;48.722;8.736;2023-05-07T10:16:02;3.00;;;1.65;;
10458;SDS011;5277;48.722;8.736;2023-05-07T10:18:33;4.97;;;1.67;;
10458;SDS011;5277;48.722;8.736;2023-05-07T10:21:05;1.95;;;1.70;;
10458;SDS011;5277;48.722;8.736;2023-05-07T10:23:47;2.95;;;1.88;;
10458;SDS011;5277;48.722;8.736;2023-05-07T10:26:15;3.20;;;2.05;;
10458;SDS011;5277;48.722;8.736;2023-05-07T10:28:43;3.67;;;1.83;;
10458;SDS011;5277;48.722;8.736;2023-05-07T10:34:16;4.07;;;1.70;;
10458;SDS011;5277;48.722;8.736;2023-05-07T10:36:47;2.25;;;1.77;;
10458;SDS011;5277;48.722;8.736;2023-05-07T10:39:14;2.70;;;1.85;;
10458;SDS011;5277;48.722;8.736;2023-05-07T10:41:42;4.18;;;1.70;;
10458;SDS011;5277;48.722;8.736;2023-05-07T10:44:11;3.50;;;2.00;;
10458;SDS011;5277;48.722;8.736;2023-05-07T10:49:32;5.00;;;1.85;;
10458;SDS011;5277;48.722;8.736;2023-05-07T10:52:11;2.67;;;2.15;;
10458;SDS011;5277;48.722;8.736;2023-05-07T10:54:39;3.17;;;1.75;;
10458;SDS011;5277;48.722;8.736;2023-05-07T10:59:55;3.80;;;2.10;;
10458;SDS011;5277;48.722;8.736;2023-05-07T11:02:21;4.03;;;1.92;;
10458;SDS011;5277;48.722;8.736;2023-05-07T11:05:21;2.78;;;1.85;;
10458;SDS011;5277;48.722;8.736;2023-05-07T11:07:57;7.85;;;2.10;;
10458;SDS011;5277;48.722;8.736;2023-05-07T11:13:40;8.20;;;2.70;;
10458;SDS011;5277;48.722;8.736;2023-05-07T11:18:53;2.88;;;1.98;;
10458;SDS011;5277;48.722;8.736;2023-05-07T11:21:31;4.88;;;2.17;;
10458;SDS011;5277;48.722;8.736;2023-05-07T11:24:01;5.57;;;2.22;;
10458;SDS011;5277;48.722;8.736;2023-05-07T11:26:40;5.63;;;2.20;;
10458;SDS011;5277;48.722;8.736;2023-05-07T11:29:11;6.63;;;2.22;;
10458;SDS011;5277;48.722;8.736;2023-05-07T11:31:42;5.60;;;2.15;;
10458;SDS011;5277;48.722;8.736;2023-05-07T11:34:08;4.45;;;2.78;;
10458;SDS011;5277;48.722;8.736;2023-05-07T11:36:34;5.78;;;2.60;;
10458;SDS011;5277;48.722;8.736;2023-05-07T11:39:12;5.60;;;3.40;;
10458;SDS011;5277;48.722;8.736;2023-05-07T11:41:48;5.32;;;2.72;;
10458;SDS011;5277;48.722;8.736;2023-05-07T11:45:23;11.93;;;2.30;;
10458;SDS011;5277;48.722;8.736;2023-05-07T11:47:52;3.45;;;2.33;;
10458;SDS011;5277;48.722;8.736;2023-05-07T11:50:17;4.22;;;2.30;;
10458;SDS011;5277;48.722;8.736;2023-05-07T11:52:50;9.80;;;2.70;;
10458;SDS011;5277;48.722;8.736;2023-05-07T11:55:19;10.23;;;2.67;;
10458;SDS011;5277;48.722;8.736;2023-05-07T11:57:46;6.85;;;2.85;;
10458;SDS011;5277;48.722;8.736;2023-05-07T12:00:15;6.00;;;2.40;;
10458;SDS011;5277;48.722;8.736;2023-05-07T12:02:41;4.63;;;2.90;;
10458;SDS011;5277;48.722;8.736;2023-05-07T12:05:07;4.55;;;2.90;;
10458;SDS011;5277;48.722;8.736;2023-05-07T12:07:33;4.05;;;2.40;;
10458;SDS011;5277;48.722;8.736;2023-05-07T12:10:03;6.00;;;2.67;;
10458;SDS011;5277;48.722;8.736;2023-05-07T12:12:38;7.05;;;2.75;;
10458;SDS011;5277;48.722;8.736;2023-05-07T12:15:04;3.47;;;2.60;;
10458;SDS011;5277;48.722;8.736;2023-05-07T12:17:30;5.90;;;3.00;;
10458;SDS011;5277;48.722;8.736;2023-05-07T12:19:56;3.40;;;2.53;;
10458;SDS011;5277;48.722;8.736;2023-05-07T12:22:25;7.65;;;2.80;;
10458;SDS011;5277;48.722;8.736;2023-05-07T12:24:58;3.63;;;2.53;;
10458;SDS011;5277;48.722;8.736;2023-05-07T12:27:24;8.02;;;3.00;;
10458;SDS011;5277;48.722;8.736;2023-05-07T12:29:50;6.60;;;2.58;;
10458;SDS011;5277;48.722;8.736;2023-05-07T12:32:20;5.65;;;2.80;;
10458;SDS011;5277;48.722;8.736;2023-05-07T12:34:49;7.30;;;2.40;;
10458;SDS011;5277;48.722;8.736;2023-05-07T12:37:15;5.03;;;2.83;;
10458;SDS011;5277;48.722;8.736;2023-05-07T12:39:45;3.92;;;2.88;;
10458;SDS011;5277;48.722;8.736;2023-05-07T12:42:16;6.50;;;2.70;;
10458;SDS011;5277;48.722;8.736;2023-05-07T12:44:45;9.30;;;2.60;;
10458;SDS011;5277;48.722;8.736;2023-05-07T12:47:11;5.38;;;2.60;;
10458;SDS011;5277;48.722;8.736;2023-05-07T12:49:37;6.32;;;2.70;;
10458;SDS011;5277;48.722;8.736;2023-05-07T12:52:06;3.40;;;2.50;;
10458;SDS011;5277;48.722;8.736;2023-05-07T12:54:32;4.18;;;2.75;;
10458;SDS011;5277;48.722;8.736;2023-05-07T12:57:04;4.05;;;2.50;;
10458;SDS011;5277;48.722;8.736;2023-05-07T12:59:34;5.28;;;2.85;;
10458;SDS011;5277;48.722;8.736;2023-05-07T13:02:07;4.70;;;2.60;;
10458;SDS011;5277;48.722;8.736;2023-05-07T13:04:34;4.00;;;2.90;;
10458;SDS011;5277;48.722;8.736;2023-05-07T13:07:00;3.30;;;2.60;;
10458;SDS011;5277;48.722;8.736;2023-05-07T13:09:27;4.63;;;3.00;;
10458;SDS011;5277;48.722;8.736;2023-05-07T13:11:54;3.65;;;2.85;;
10458;SDS011;5277;48.722;8.736;2023-05-07T13:14:20;5.53;;;2.65;;
10458;SDS011;5277;48.722;8.736;2023-05-07T13:16:46;6.70;;;3.13;;
10458;SDS011;5277;48.722;8.736;2023-05-07T13:19:12;5.03;;;2.67;;
10458;SDS011;5277;48.722;8.736;2023-05-07T13:21:38;5.30;;;2.28;;
10458;SDS011;5277;48.722;8.736;2023-05-07T13:24:04;4.45;;;2.63;;
10458;SDS011;5277;48.722;8.736;2023-05-07T13:26:30;4.60;;;2.28;;
10458;SDS011;5277;48.722;8.736;2023-05-07T13:28:56;4.95;;;2.38;;
10458;SDS011;5277;48.722;8.736;2023-05-07T13:31:22;5.25;;;2.53;;
10458;SDS011;5277;48.722;8.736;2023-05-07T13:33:49;5.43;;;2.78;;
10458;SDS011;5277;48.722;8.736;2023-05-07T13:36:15;5.70;;;2.42;;
10458;SDS011;5277;48.722;8.736;2023-05-07T13:38:43;8.65;;;2.83;;
10458;SDS011;5277;48.722;8.736;2023-05-07T13:41:09;4.63;;;2.72;;
10458;SDS011;5277;48.722;8.736;2023-05-07T13:43:35;3.55;;;2.30;;
10458;SDS011;5277;48.722;8.736;2023-05-07T13:46:00;5.50;;;2.78;;
10458;SDS011;5277;48.722;8.736;2023-05-07T13:48:26;5.85;;;2.70;;
10458;SDS011;5277;48.722;8.736;2023-05-07T13:50:53;5.97;;;2.88;;
10458;SDS011;5277;48.722;8.736;2023-05-07T13:53:19;4.05;;;2.75;;
10458;SDS011;5277;48.722;8.736;2023-05-07T13:55:47;9.07;;;2.45;;
10458;SDS011;5277;48.722;8.736;2023-05-07T13:58:13;3.80;;;2.60;;
10458;SDS011;5277;48.722;8.736;2023-05-07T14:00:40;4.47;;;2.40;;
10458;SDS011;5277;48.722;8.736;2023-05-07T14:03:06;8.68;;;2.88;;
10458;SDS011;5277;48.722;8.736;2023-05-07T14:05:32;9.10;;;2.97;;
10458;SDS011;5277;48.722;8.736;2023-05-07T14:07:58;6.75;;;2.50;;
10458;SDS011;5277;48.722;8.736;2023-05-07T14:10:24;6.93;;;3.90;;
10458;SDS011;5277;48.722;8.736;2023-05-07T14:12:49;7.30;;;3.05;;
10458;SDS011;5277;48.722;8.736;2023-05-07T14:15:15;8.23;;;3.95;;
10458;SDS011;5277;48.722;8.736;2023-05-07T14:17:41;12.77;;;3.63;;
10458;SDS011;5277;48.722;8.736;2023-05-07T14:20:08;7.95;;;3.63;;
10458;SDS011;5277;48.722;8.736;2023-05-07T14:22:35;8.68;;;3.67;;
10458;SDS011;5277;48.722;8.736;2023-05-07T14:25:01;8.80;;;3.45;;
10458;SDS011;5277;48.722;8.736;2023-05-07T14:27:27;5.22;;;3.83;;
10458;SDS011;5277;48.722;8.736;2023-05-07T14:29:53;10.13;;;4.63;;
10458;SDS011;5277;48.722;8.736;2023-05-07T14:32:19;10.02;;;4.25;;
10458;SDS011;5277;48.722;8.736;2023-05-07T14:34:45;6.32;;;3.15;;
10458;SDS011;5277;48.722;8.736;2023-05-07T14:37:11;5.30;;;3.15;;
10458;SDS011;5277;48.722;8.736;2023-05-07T14:39:37;6.28;;;2.67;;
10458;SDS011;5277;48.722;8.736;2023-05-07T14:42:05;5.03;;;3.55;;
10458;SDS011;5277;48.722;8.736;2023-05-07T14:44:32;9.48;;;3.22;;
10458;SDS011;5277;48.722;8.736;2023-05-07T14:47:00;4.57;;;3.22;;
10458;SDS011;5277;48.722;8.736;2023-05-07T14:49:26;7.85;;;3.45;;
10458;SDS011;5277;48.722;8.736;2023-05-07T14:51:56;4.65;;;3.08;;
10458;SDS011;5277;48.722;8.736;2023-05-07T14:54:23;7.45;;;3.40;;
10458;SDS011;5277;48.722;8.736;2023-05-07T14:56:48;6.55;;;3.15;;
10458;SDS011;5277;48.722;8.736;2023-05-07T14:59:15;5.75;;;3.10;;
10458;SDS011;5277;48.722;8.736;2023-05-07T15:01:43;5.45;;;3.35;;
10458;SDS011;5277;48.722;8.736;2023-05-07T15:04:12;7.03;;;3.10;;
10458;SDS011;5277;48.722;8.736;2023-05-07T15:06:38;11.20;;;3.22;;
10458;SDS011;5277;48.722;8.736;2023-05-07T15:09:07;23.35;;;14.32;;
10458;SDS011;5277;48.722;8.736;2023-05-07T15:11:34;23.77;;;17.60;;
10458;SDS011;5277;48.722;8.736;2023-05-07T15:14:02;13.65;;;9.52;;
10458;SDS011;5277;48.722;8.736;2023-05-07T15:16:31;10.52;;;8.60;;
10458;SDS011;5277;48.722;8.736;2023-05-07T15:18:57;16.13;;;14.43;;